Search projects


Showing 151-200 of 4,306 items.
NameOwnerPublication dateProject typeLikesViewed 
Robot Magnetronico por bt (4 ruedas)Joaquin Perot2017-09-29 20:14:50Arduino Nano / ATmega328 1978
Práctica01 Puertos de salida digitalRafael Garcia Garcia2017-10-01 07:11:38Arduino Mega / 2560 01149
RoboPatricksJuan Beiroa2017-10-03 22:03:49Arduino Uno 11116
Robot evita obstáculos 2WDArduinoBlocks 2017-10-16 22:13:07Arduino Uno 32398
INTERMITENTE MOTO CON LUCES EMERGENCIA 2Jorditor 2017-10-19 21:09:29Arduino Uno 11114
pulsador -servo+bt (mano)Victor Schnidrig2017-10-22 22:46:48Arduino Uno 11109
Control 2 led por BluetoothWashington Molinari2017-11-02 20:47:38Arduino Uno 01141
invernadero ing. sepulvedaLuis Sepulveda2017-11-15 18:06:06Arduino Uno 11177
Ejemplo_DomoticaRafael Garcia2017-11-30 22:26:17Arduino Mega / 2560 41458
Control por Voz (Arduino+Android) (2)Pilar Rodríguez2017-12-05 16:59:14Arduino Uno 0943
EasyPlug - P1ArduinoBlocks 2017-12-05 17:23:36Arduino Uno 01054
EasyPlug - P2ArduinoBlocks 2017-12-05 17:26:01Arduino Uno 01104
EasyPlug - P3ArduinoBlocks 2017-12-05 17:27:06Arduino Uno 01058
EasyPlug - P4ArduinoBlocks 2017-12-05 17:36:38Arduino Uno 11122
EasyPlug - P6ArduinoBlocks 2017-12-05 17:40:12Arduino Uno 01188
EasyPlug - P7ArduinoBlocks 2017-12-05 17:43:07Arduino Uno 01134
EasyPlug - P5ArduinoBlocks 2017-12-05 17:48:11Arduino Uno 01117
Siguelineas con sensor TCRT5000José Joaquín Alcázar2017-12-07 13:47:59Arduino Uno 31351
Control por Voz (Arduino+Android)ArduinoBlocks 2017-12-11 12:34:26Arduino Uno 32916
Dado electrónicoArduinoBlocks 2017-12-11 12:43:48Arduino Uno 52419
keypad + i2c lcdArduinoBlocks 2017-12-11 12:44:52Arduino Uno 31823
test motor paso a pasoArduinoBlocks 2017-12-26 13:44:12Arduino Uno 22390
Ledes alternativosAngel Millán2017-12-29 14:42:38Arduino Uno 1898
Coche Fantástico (V1)Angel Millán2017-12-29 19:10:43Arduino Uno 21327
Semáforo para tráfico rodadoAngel Millán2017-12-29 20:05:13Arduino Uno 1933
RADARDavid Negrete López2018-01-03 02:23:53Arduino Mega / 2560 31099
Semáforo para vehículos y peatonesAngel Millán2018-01-03 15:41:58Arduino Uno 01036
BLINKDavid Negrete López2018-01-08 23:25:02Arduino Mega / 2560 31118
Luces de posición pulsador LCD + VIDEOSistemas Eléctricos Del Automovil2018-01-10 18:09:38Arduino Uno 11150
Arduino Trainer: test 1 (ledes)Angel Millán2018-01-11 21:43:28Arduino Uno 11201
Arduino Trainer: test 2 (pulsadores)Angel Millán2018-01-15 17:03:45Arduino Uno 11041
NeoPixel DemoArduinoBlocks 2018-01-15 23:56:25Arduino Uno 12200
sPaula Martín2018-01-22 10:59:51Arduino Uno 0913
Arduino Trainer: test 2 (pulsadores)Jose Luis Perez Barrales2018-02-01 22:27:56Arduino Uno 01040
HispalisRobioticsTrainer:Leccion01Jose Luis Perez Barrales2018-02-01 23:40:56Arduino Uno 0842
Riego jardínAlberto Villanueva2018-02-04 06:41:03Arduino Uno 61186
Arduino Trainer: Sensor UltrasonicoJose Luis Perez Barrales2018-02-05 00:53:36Arduino Uno 21423
P40 - Brazo robótico controlado PCArduinoBlocks 2018-02-07 10:45:35Arduino Uno 11451
P39 - Robot motores DC sigue líneasArduinoBlocks 2018-02-07 10:46:30Arduino Uno 11453
P28 - GPS aviso alejamientoArduinoBlocks 2018-02-07 10:47:01Arduino Uno 11110
P29 - GPS registrador SDArduinoBlocks 2018-02-07 10:48:01Arduino Uno 11164
P30 - Temp/Humedad SDArduinoBlocks 2018-02-07 10:49:28Arduino Uno 01182
P31 - Servo + AcelerómetroArduinoBlocks 2018-02-07 10:50:03Arduino Uno 11287
P32 - Detector de caídasArduinoBlocks 2018-02-07 10:53:04Arduino Uno 11147
P33 - MQTT (IoT) - Led RGBArduinoBlocks 2018-02-07 10:54:04Arduino Uno 01203
P35 - MQTT (IoT) - DomoticaArduinoBlocks 2018-02-07 10:55:07Arduino Uno 31432
P42 - Brazo robótico controlado via MQTTArduinoBlocks 2018-02-07 10:56:06Arduino Uno 11273
P34 - MQTT (IoT) - Estacion MeteoArduinoBlocks 2018-02-07 10:56:31Arduino Uno 21419
P36 - Robot con servos BluetoothArduinoBlocks 2018-02-07 10:56:44Arduino Uno 21306
P37 - Robot motores DC BluetoothArduinoBlocks 2018-02-07 10:56:54Arduino Uno 11283